Time;durP1;ratioP1;P1;durP2;ratioP2;P2;SDS_P1;SDS_P2;PMS_P1;PMS_P2;Temp;Humidity;BMP_temperature;BMP_pressure;BME280_temperature;BME280_humidity;BME280_pressure;Samples;Min_cycle;Max_cycle;Signal;HPM_P1;HPM_P2
2023/09/08 00:00:38;;;;;;;9.05;8.15;;;17.60;99.90;;;;;;5014552;28;20191;-30
2023/09/08 00:03:06;;;;;;;7.97;7.28;;;17.50;99.90;;;;;;5012735;28;20219;-29
2023/09/08 00:05:33;;;;;;;9.43;8.05;;;17.50;99.90;;;;;;5012628;28;20179;-30
2023/09/08 00:08:00;;;;;;;9.40;8.25;;;17.40;99.90;;;;;;5012777;28;20251;-29
2023/09/08 00:10:28;;;;;;;9.90;7.40;;;17.30;99.90;;;;;;4995983;28;20275;-30
2023/09/08 00:12:54;;;;;;;9.35;7.78;;;17.20;99.90;;;;;;5020558;28;20193;-30
2023/09/08 00:15:21;;;;;;;9.32;8.38;;;17.20;99.90;;;;;;5012013;28;20210;-30
2023/09/08 00:17:48;;;;;;;8.48;7.68;;;17.20;99.90;;;;;;5020474;28;20189;-30
2023/09/08 00:20:15;;;;;;;9.70;7.68;;;17.20;99.90;;;;;;5019827;28;20191;-29
2023/09/08 00:22:40;;;;;;;9.80;7.90;;;17.20;99.90;;;;;;5011921;28;20298;-29
2023/09/08 00:25:06;;;;;;;8.18;7.38;;;17.20;99.90;;;;;;5011874;28;20278;-29
2023/09/08 00:27:32;;;;;;;9.20;7.07;;;17.10;99.90;;;;;;5012136;28;20253;-29
2023/09/08 00:30:01;;;;;;;7.68;6.82;;;17.10;99.90;;;;;;5011283;28;20237;-29
2023/09/08 00:32:28;;;;;;;9.90;7.35;;;17.10;99.90;;;;;;5017844;28;20186;-29
2023/09/08 00:34:56;;;;;;;9.52;7.35;;;17.10;99.90;;;;;;5019652;28;20238;-29
2023/09/08 00:37:24;;;;;;;7.80;7.10;;;17.00;99.90;;;;;;5018506;28;20240;-29
2023/09/08 00:39:51;;;;;;;8.52;7.13;;;17.00;99.90;;;;;;5038292;28;20279;-29
2023/09/08 00:42:19;;;;;;;8.45;7.65;;;16.90;99.90;;;;;;5019976;28;20309;-29
2023/09/08 00:44:45;;;;;;;8.10;6.95;;;16.80;99.90;;;;;;5020475;28;20230;-29
2023/09/08 00:47:12;;;;;;;8.38;7.03;;;16.60;99.90;;;;;;5019345;28;20295;-29
2023/09/08 00:49:38;;;;;;;7.68;6.88;;;16.60;99.90;;;;;;5016875;28;20178;-29
2023/09/08 00:52:05;;;;;;;8.70;7.25;;;16.60;99.90;;;;;;5020334;28;20193;-29
2023/09/08 00:54:31;;;;;;;8.50;7.43;;;16.60;99.90;;;;;;5021664;28;20207;-29
2023/09/08 00:57:00;;;;;;;7.32;6.63;;;16.60;99.90;;;;;;5020464;28;20213;-28
2023/09/08 00:59:31;;;;;;;10.25;7.55;;;16.60;99.90;;;;;;5020097;28;20184;-28
2023/09/08 01:01:58;;;;;;;7.90;7.10;;;16.60;99.90;;;;;;5018617;28;20211;-29
2023/09/08 01:04:24;;;;;;;9.25;7.60;;;16.60;99.90;;;;;;5020213;28;20302;-29
2023/09/08 01:06:51;;;;;;;8.90;8.00;;;16.60;99.90;;;;;;5019903;28;20182;-29
2023/09/08 01:09:19;;;;;;;9.52;7.68;;;16.60;99.90;;;;;;5019250;28;20269;-29
2023/09/08 01:11:46;;;;;;;9.05;7.35;;;16.60;99.90;;;;;;5019729;28;20187;-29
2023/09/08 01:14:19;;;;;;;8.10;7.32;;;16.50;99.90;;;;;;5019581;28;20203;-29
2023/09/08 01:16:45;;;;;;;8.05;7.35;;;16.50;99.90;;;;;;5019215;28;20182;-28
2023/09/08 01:19:14;;;;;;;9.10;8.20;;;16.50;99.90;;;;;;5014488;28;20183;-29
2023/09/08 01:21:55;;;;;;;9.55;8.15;;;16.50;99.90;;;;;;5019195;28;20210;-28
2023/09/08 01:24:43;;;;;;;8.90;7.77;;;16.50;99.90;;;;;;5020457;28;20198;-29
2023/09/08 01:27:14;;;;;;;9.30;7.57;;;16.50;99.90;;;;;;5014844;28;20183;-29
2023/09/08 01:29:44;;;;;;;7.85;7.15;;;16.50;99.90;;;;;;5010110;28;20457;-29
2023/09/08 01:32:11;;;;;;;7.57;6.97;;;16.50;99.90;;;;;;5025534;28;20194;-29
2023/09/08 01:34:39;;;;;;;8.17;7.37;;;16.50;99.90;;;;;;5010821;28;20273;-29
2023/09/08 01:37:07;;;;;;;8.38;7.60;;;16.50;99.90;;;;;;5017415;28;20202;-29
2023/09/08 01:39:32;;;;;;;10.10;7.20;;;16.40;99.90;;;;;;5009410;28;20191;-29
2023/09/08 01:41:58;;;;;;;9.10;8.20;;;16.30;99.90;;;;;;5007090;28;20210;-29
2023/09/08 01:44:24;;;;;;;8.52;7.72;;;16.30;99.90;;;;;;5016581;28;20290;-28
2023/09/08 01:46:56;;;;;;;8.90;8.00;;;16.30;99.90;;;;;;5009805;28;20176;-29
2023/09/08 01:49:23;;;;;;;9.43;7.95;;;16.30;99.90;;;;;;5000984;28;20180;-29
2023/09/08 01:51:48;;;;;;;9.13;8.20;;;16.30;99.90;;;;;;5009829;28;20187;-28
2023/09/08 01:54:14;;;;;;;11.90;8.13;;;16.20;99.90;;;;;;5010520;28;20218;-29
2023/09/08 01:56:40;;;;;;;9.47;8.47;;;16.20;99.90;;;;;;5010499;28;20186;-28
2023/09/08 01:59:06;;;;;;;8.97;8.07;;;16.10;99.90;;;;;;5009919;28;20210;-29
2023/09/08 02:01:32;;;;;;;9.35;8.07;;;16.00;99.90;;;;;;5012245;28;20231;-28
2023/09/08 02:03:59;;;;;;;9.37;8.47;;;16.00;99.90;;;;;;5018334;28;20202;-29
2023/09/08 02:06:27;;;;;;;13.00;9.23;;;16.00;99.90;;;;;;5015168;28;20274;-28
2023/09/08 02:08:53;;;;;;;12.17;8.73;;;16.00;99.90;;;;;;5017480;28;20179;-28
2023/09/08 02:11:24;;;;;;;10.48;9.48;;;16.00;99.90;;;;;;5018521;28;20175;-29
2023/09/08 02:13:52;;;;;;;10.15;9.10;;;16.00;99.90;;;;;;5019145;28;20210;-29
2023/09/08 02:16:21;;;;;;;9.47;8.47;;;16.10;99.90;;;;;;5033994;28;20254;-29
2023/09/08 02:18:55;;;;;;;8.80;7.90;;;16.10;99.90;;;;;;5017923;28;20178;-28
2023/09/08 02:21:25;;;;;;;8.67;7.90;;;16.10;99.90;;;;;;5034172;28;20277;-28
2023/09/08 02:23:51;;;;;;;11.50;8.20;;;16.00;99.90;;;;;;5017370;28;20195;-28
2023/09/08 02:26:23;;;;;;;11.20;8.43;;;15.80;99.90;;;;;;5016489;28;20189;-29
2023/09/08 02:28:53;;;;;;;9.47;7.63;;;15.80;99.90;;;;;;5017363;28;20210;-29
2023/09/08 02:31:23;;;;;;;9.13;8.27;;;15.70;99.90;;;;;;5017406;28;20225;-30
2023/09/08 02:33:53;;;;;;;9.03;8.10;;;15.70;99.90;;;;;;5033935;28;20242;-28
2023/09/08 02:36:25;;;;;;;9.43;8.00;;;15.60;99.90;;;;;;5015573;28;20445;-28
2023/09/08 02:38:53;;;;;;;8.20;7.40;;;15.70;99.90;;;;;;5016849;28;20335;-28
2023/09/08 02:41:20;;;;;;;12.90;8.90;;;15.60;99.90;;;;;;5016310;28;20274;-28
2023/09/08 02:43:49;;;;;;;10.97;7.97;;;15.60;99.90;;;;;;5018248;28;20205;-28
2023/09/08 02:46:19;;;;;;;9.57;8.20;;;15.60;99.90;;;;;;5015314;28;20187;-28
2023/09/08 02:48:48;;;;;;;9.53;8.50;;;15.60;99.90;;;;;;5016492;28;20210;-28
2023/09/08 02:51:22;;;;;;;11.60;8.53;;;15.60;99.90;;;;;;5018014;28;20179;-28
2023/09/08 02:53:50;;;;;;;9.07;7.67;;;15.60;99.90;;;;;;5018478;28;20225;-28
2023/09/08 02:56:18;;;;;;;10.73;8.53;;;15.50;99.90;;;;;;5018796;28;20182;-29
2023/09/08 02:58:47;;;;;;;9.03;8.03;;;15.50;99.90;;;;;;5007482;28;20201;-29
2023/09/08 03:01:20;;;;;;;7.67;6.93;;;15.40;99.90;;;;;;5017824;28;20175;-29
2023/09/08 03:03:47;;;;;;;10.60;8.60;;;15.40;99.90;;;;;;5017865;28;20206;-28
2023/09/08 03:06:27;;;;;;;8.00;7.30;;;15.30;99.90;;;;;;5018061;28;20202;-28
2023/09/08 03:08:56;;;;;;;9.47;8.10;;;15.30;99.90;;;;;;5017530;28;20190;-28
2023/09/08 03:11:25;;;;;;;10.70;8.07;;;15.30;99.90;;;;;;5035090;28;20278;-29
2023/09/08 03:13:51;;;;;;;9.23;8.00;;;15.30;99.90;;;;;;5017728;28;20201;-28
2023/09/08 03:16:18;;;;;;;8.40;7.60;;;15.30;99.90;;;;;;5016168;28;20188;-28
2023/09/08 03:18:44;;;;;;;9.23;8.03;;;15.20;99.90;;;;;;5018240;28;20628;-28
2023/09/08 03:21:14;;;;;;;9.00;7.87;;;15.30;99.90;;;;;;5016755;28;20190;-28
2023/09/08 03:23:43;;;;;;;8.30;7.50;;;15.30;99.90;;;;;;5035577;28;20215;-30
2023/09/08 03:26:11;;;;;;;8.90;8.00;;;15.30;99.90;;;;;;5018188;28;20194;-28
2023/09/08 03:28:39;;;;;;;8.77;7.87;;;15.20;99.90;;;;;;5016795;28;20204;-28
2023/09/08 03:31:07;;;;;;;9.10;8.10;;;15.20;99.90;;;;;;5017525;28;20182;-29
2023/09/08 03:33:36;;;;;;;9.63;7.83;;;15.20;99.90;;;;;;5017970;28;20214;-28
2023/09/08 03:36:05;;;;;;;8.93;8.07;;;15.10;99.90;;;;;;5019043;28;20195;-29
2023/09/08 03:38:32;;;;;;;8.93;8.13;;;15.10;99.90;;;;;;5020864;28;20191;-28
2023/09/08 03:40:59;;;;;;;10.30;8.50;;;15.10;99.90;;;;;;5020510;28;20179;-28
2023/09/08 03:43:26;;;;;;;10.23;8.00;;;15.10;99.90;;;;;;5038601;28;20240;-29
2023/09/08 03:45:52;;;;;;;10.67;7.93;;;15.00;99.90;;;;;;5020734;28;20229;-29
2023/09/08 03:48:20;;;;;;;8.90;8.00;;;15.00;99.90;;;;;;5022103;28;20244;-29
2023/09/08 03:50:47;;;;;;;9.13;8.23;;;15.00;99.90;;;;;;5021044;28;20187;-28
2023/09/08 03:53:14;;;;;;;9.33;8.33;;;15.00;99.90;;;;;;5020093;28;20192;-28
2023/09/08 03:55:41;;;;;;;10.20;7.57;;;15.00;99.90;;;;;;5004233;28;20192;-29
2023/09/08 03:58:07;;;;;;;8.03;7.30;;;15.10;99.90;;;;;;5020160;28;20184;-29
2023/09/08 04:00:35;;;;;;;8.30;7.50;;;15.10;99.90;;;;;;5020604;28;20278;-29
2023/09/08 04:03:02;;;;;;;9.60;8.60;;;15.00;99.90;;;;;;5022382;28;20213;-30
2023/09/08 04:05:29;;;;;;;9.20;8.30;;;15.00;99.90;;;;;;5021038;28;20178;-29
2023/09/08 04:07:55;;;;;;;9.20;8.30;;;15.00;99.90;;;;;;5020908;28;20183;-28
2023/09/08 04:10:22;;;;;;;9.07;8.10;;;14.90;99.90;;;;;;5019531;28;20215;-28
2023/09/08 04:12:48;;;;;;;10.13;8.77;;;14.90;99.90;;;;;;5020001;28;20183;-28
2023/09/08 04:15:15;;;;;;;8.47;7.60;;;14.80;99.90;;;;;;5018859;28;20278;-28
2023/09/08 04:17:42;;;;;;;9.57;8.57;;;14.80;99.90;;;;;;5019899;28;20190;-28
2023/09/08 04:20:08;;;;;;;8.73;7.90;;;14.70;99.90;;;;;;5019955;28;20183;-28
2023/09/08 04:22:35;;;;;;;10.50;8.53;;;14.70;99.90;;;;;;5019595;28;20221;-29
2023/09/08 04:25:02;;;;;;;9.63;8.30;;;14.60;99.90;;;;;;5018656;28;20677;-29
2023/09/08 04:27:29;;;;;;;9.73;8.83;;;14.60;99.90;;;;;;5018053;28;20189;-28
2023/09/08 04:29:55;;;;;;;8.53;7.63;;;14.70;99.90;;;;;;5019421;28;20226;-28
2023/09/08 04:32:22;;;;;;;10.53;9.03;;;14.70;99.90;;;;;;5018826;28;20187;-29
2023/09/08 04:34:49;;;;;;;10.10;8.83;;;14.70;99.90;;;;;;5019137;28;20221;-28
2023/09/08 04:37:17;;;;;;;9.17;7.77;;;14.60;99.90;;;;;;5020396;28;20178;-28
2023/09/08 04:39:44;;;;;;;9.80;8.90;;;14.60;99.90;;;;;;5017599;28;20179;-28
2023/09/08 04:42:09;;;;;;;10.73;9.20;;;14.60;99.90;;;;;;5011470;28;20257;-28
2023/09/08 04:44:35;;;;;;;9.87;8.97;;;14.60;99.90;;;;;;5011624;28;20241;-28
2023/09/08 04:47:01;;;;;;;9.97;8.97;;;14.60;99.90;;;;;;5011510;28;20172;-28
2023/09/08 04:49:28;;;;;;;9.07;8.17;;;14.60;99.90;;;;;;5012069;28;20199;-29
2023/09/08 04:51:54;;;;;;;10.17;9.13;;;14.50;99.90;;;;;;5011116;28;20190;-28
2023/09/08 04:54:26;;;;;;;9.77;8.77;;;14.50;99.90;;;;;;5011539;28;20214;-29
2023/09/08 04:56:53;;;;;;;9.67;8.63;;;14.50;99.90;;;;;;5011621;28;20186;-28
2023/09/08 04:59:20;;;;;;;10.27;9.17;;;14.50;99.90;;;;;;5011270;28;20194;-28
2023/09/08 05:01:47;;;;;;;10.20;9.20;;;14.60;99.90;;;;;;5011258;28;20210;-29
2023/09/08 05:04:13;;;;;;;9.63;8.73;;;14.60;99.90;;;;;;5010826;28;20226;-28
2023/09/08 05:06:38;;;;;;;11.20;9.23;;;14.60;99.90;;;;;;5009716;28;20179;-29
2023/09/08 05:09:04;;;;;;;9.70;8.77;;;14.60;99.90;;;;;;5011306;28;20180;-28
2023/09/08 05:11:30;;;;;;;10.00;9.00;;;14.60;99.90;;;;;;5010667;28;20172;-29
2023/09/08 05:13:57;;;;;;;10.33;9.23;;;14.60;99.90;;;;;;5011165;28;20253;-28
2023/09/08 05:16:37;;;;;;;9.00;8.10;;;14.60;99.90;;;;;;5011242;28;20202;-28
2023/09/08 05:19:05;;;;;;;9.90;8.90;;;14.60;99.90;;;;;;5010620;28;20183;-28
2023/09/08 05:21:32;;;;;;;10.23;8.70;;;14.60;99.90;;;;;;5009878;28;20171;-28
2023/09/08 05:24:01;;;;;;;10.07;8.67;;;14.60;99.90;;;;;;5012418;28;20229;-28
2023/09/08 05:26:28;;;;;;;10.83;8.77;;;14.70;99.90;;;;;;5009187;28;20183;-28
2023/09/08 05:28:54;;;;;;;9.70;8.63;;;14.70;99.90;;;;;;5007157;28;20225;-28
2023/09/08 05:31:21;;;;;;;12.17;8.33;;;14.80;99.90;;;;;;5009892;28;20175;-29
2023/09/08 05:33:47;;;;;;;9.93;8.93;;;14.90;99.90;;;;;;5009613;28;20305;-28
2023/09/08 05:36:13;;;;;;;9.40;8.50;;;14.90;99.90;;;;;;5010009;28;20210;-28
2023/09/08 05:38:41;;;;;;;8.40;7.60;;;15.00;99.90;;;;;;5009639;28;20190;-27
2023/09/08 05:41:09;;;;;;;12.23;8.37;;;15.10;99.90;;;;;;5000652;28;20186;-28
2023/09/08 05:43:41;;;;;;;8.73;7.10;;;15.10;99.90;;;;;;5004590;28;20207;-28
2023/09/08 05:46:07;;;;;;;9.73;7.20;;;15.20;99.90;;;;;;5007539;28;20317;-29
2023/09/08 05:48:33;;;;;;;9.03;7.57;;;15.30;99.90;;;;;;5010356;28;20183;-28
2023/09/08 05:50:59;;;;;;;14.00;8.30;;;15.40;99.90;;;;;;5013952;28;20175;-29
2023/09/08 05:53:25;;;;;;;9.17;7.20;;;15.40;99.90;;;;;;5012724;28;20207;-29
2023/09/08 05:55:52;;;;;;;9.47;8.03;;;15.50;99.90;;;;;;5009549;28;20266;-29
2023/09/08 05:58:18;;;;;;;11.60;8.17;;;15.50;99.90;;;;;;5009089;28;20187;-29
2023/09/08 06:00:44;;;;;;;9.83;8.80;;;15.50;99.90;;;;;;5010197;28;20677;-30
2023/09/08 06:03:10;;;;;;;9.97;8.97;;;15.60;99.90;;;;;;5006771;28;20207;-29
2023/09/08 06:05:37;;;;;;;9.87;8.77;;;15.60;99.90;;;;;;5007085;28;20179;-29
2023/09/08 06:08:07;;;;;;;11.37;8.97;;;15.70;99.90;;;;;;5010088;28;20183;-29
2023/09/08 06:10:37;;;;;;;10.77;8.30;;;15.70;99.90;;;;;;5006699;28;20222;-29
2023/09/08 06:13:03;;;;;;;10.90;8.80;;;15.80;99.90;;;;;;5005863;28;20187;-28
2023/09/08 06:15:30;;;;;;;9.17;8.27;;;15.90;99.90;;;;;;5004454;28;20183;-28
2023/09/08 06:17:59;;;;;;;10.03;9.03;;;16.00;99.90;;;;;;5005286;28;20258;-28
2023/09/08 06:20:26;;;;;;;10.30;9.20;;;16.10;99.90;;;;;;5025850;28;20191;-28
2023/09/08 06:22:53;;;;;;;10.30;9.20;;;16.20;99.90;;;;;;5009862;28;20258;-28
2023/09/08 06:25:20;;;;;;;9.50;8.60;;;16.30;99.90;;;;;;5003601;28;20199;-28
2023/09/08 06:27:48;;;;;;;11.00;10.00;;;16.30;99.90;;;;;;5007668;28;20179;-28
2023/09/08 06:30:16;;;;;;;10.82;9.73;;;16.40;99.90;;;;;;5005455;28;20239;-28
2023/09/08 06:32:42;;;;;;;10.50;9.40;;;16.50;99.90;;;;;;5005982;28;20266;-29
2023/09/08 06:35:09;;;;;;;10.55;9.15;;;16.60;99.90;;;;;;5009839;28;20211;-29
2023/09/08 06:37:38;;;;;;;14.77;10.30;;;16.60;99.90;;;;;;5009703;28;20183;-29
2023/09/08 06:40:13;;;;;;;10.65;9.65;;;16.70;99.90;;;;;;5004913;28;20179;-28
2023/09/08 06:42:41;;;;;;;10.88;9.88;;;16.80;99.90;;;;;;5000833;28;20210;-29
2023/09/08 06:45:19;;;;;;;9.65;8.73;;;16.90;99.90;;;;;;5007485;28;20301;-29
2023/09/08 06:47:46;;;;;;;10.20;9.20;;;17.00;99.90;;;;;;5007129;28;20171;-29
2023/09/08 06:50:12;;;;;;;11.65;9.65;;;17.00;99.90;;;;;;5009000;28;20179;-28
2023/09/08 06:52:38;;;;;;;14.70;11.07;;;17.10;99.90;;;;;;5008128;28;20179;-28
2023/09/08 06:55:05;;;;;;;12.57;9.73;;;17.20;99.90;;;;;;5009185;28;20226;-28
2023/09/08 06:57:31;;;;;;;11.63;9.40;;;17.30;99.90;;;;;;5007492;28;20184;-28
2023/09/08 06:59:57;;;;;;;11.90;9.60;;;17.40;99.90;;;;;;5008972;28;20194;-28
2023/09/08 07:02:23;;;;;;;10.73;9.63;;;17.50;99.90;;;;;;5007562;28;20294;-28
2023/09/08 07:04:49;;;;;;;10.90;9.35;;;17.50;99.90;;;;;;5008110;28;20195;-28
2023/09/08 07:07:15;;;;;;;11.05;9.60;;;17.60;99.90;;;;;;5009666;28;20195;-28
2023/09/08 07:09:41;;;;;;;10.20;8.98;;;17.70;99.90;;;;;;5011058;28;20237;-29
2023/09/08 07:12:07;;;;;;;11.32;9.38;;;17.80;99.90;;;;;;5014864;28;20187;-28
2023/09/08 07:14:35;;;;;;;10.75;9.60;;;18.00;99.90;;;;;;5009395;28;20223;-29
2023/09/08 07:17:01;;;;;;;10.48;9.48;;;18.00;99.90;;;;;;5007468;28;20183;-28
2023/09/08 07:19:28;;;;;;;11.05;9.40;;;18.20;99.90;;;;;;5012758;28;20211;-29
2023/09/08 07:21:54;;;;;;;10.25;9.35;;;18.30;99.90;;;;;;5011390;28;20199;-28
2023/09/08 07:24:20;;;;;;;9.77;8.63;;;18.40;99.90;;;;;;5012710;28;20203;-29
2023/09/08 07:26:47;;;;;;;11.27;10.10;;;18.50;99.90;;;;;;5013055;28;20206;-28
2023/09/08 07:29:16;;;;;;;11.38;9.43;;;18.50;99.90;;;;;;5012611;28;20190;-29
2023/09/08 07:31:43;;;;;;;9.82;8.85;;;18.50;99.90;;;;;;5012322;28;20274;-28
2023/09/08 07:34:09;;;;;;;10.38;9.38;;;18.60;99.90;;;;;;5011332;28;20302;-29
2023/09/08 07:36:37;;;;;;;10.15;9.10;;;18.80;99.90;;;;;;5011281;28;20247;-29
2023/09/08 07:39:04;;;;;;;11.63;10.43;;;18.80;99.90;;;;;;5012037;28;20184;-28
2023/09/08 07:41:30;;;;;;;10.80;9.27;;;18.90;99.90;;;;;;5012160;28;20191;-29
2023/09/08 07:43:56;;;;;;;10.30;9.30;;;19.10;99.90;;;;;;5011080;28;20203;-29
2023/09/08 07:46:24;;;;;;;10.25;9.27;;;19.20;99.90;;;;;;5010110;28;20215;-28
2023/09/08 07:48:50;;;;;;;11.73;9.15;;;19.30;99.90;;;;;;5013386;28;20245;-29
2023/09/08 07:51:15;;;;;;;10.85;9.75;;;19.40;99.90;;;;;;5010319;28;20191;-29
2023/09/08 07:53:41;;;;;;;10.32;9.30;;;19.40;99.90;;;;;;5012359;28;20203;-28
2023/09/08 07:56:07;;;;;;;9.68;8.68;;;19.50;99.90;;;;;;5010378;28;20179;-29
2023/09/08 07:58:33;;;;;;;12.05;8.82;;;19.60;99.90;;;;;;5006130;28;20187;-29
2023/09/08 08:00:59;;;;;;;10.18;9.18;;;19.80;99.90;;;;;;5009899;28;20187;-29
2023/09/08 08:03:25;;;;;;;10.90;9.90;;;19.90;99.90;;;;;;5011798;28;20239;-29
2023/09/08 08:05:51;;;;;;;8.45;7.50;;;20.00;99.90;;;;;;5011548;28;20199;-29
2023/09/08 08:08:17;;;;;;;7.97;7.28;;;20.10;99.90;;;;;;5012076;28;20214;-28
2023/09/08 08:10:43;;;;;;;10.18;9.18;;;20.20;99.90;;;;;;5012340;28;20210;-29
2023/09/08 08:13:10;;;;;;;9.43;8.43;;;20.30;99.90;;;;;;5011610;28;20207;-29
2023/09/08 08:15:38;;;;;;;9.27;8.32;;;20.40;99.90;;;;;;5008662;28;20210;-29
2023/09/08 08:18:05;;;;;;;8.70;8.00;;;20.50;99.90;;;;;;5010764;28;20183;-29
2023/09/08 08:20:34;;;;;;;8.85;8.05;;;20.70;99.90;;;;;;5011736;28;20191;-29
2023/09/08 08:23:04;;;;;;;8.93;8.02;;;20.90;99.90;;;;;;5010715;28;20203;-29
2023/09/08 08:25:30;;;;;;;8.65;7.85;;;21.00;99.90;;;;;;5011856;28;20183;-29
2023/09/08 08:27:58;;;;;;;9.05;8.18;;;21.10;99.90;;;;;;5011951;28;20225;-29
2023/09/08 08:30:25;;;;;;;9.30;7.32;;;21.30;99.90;;;;;;5012048;28;20175;-29
2023/09/08 08:32:53;;;;;;;8.27;7.40;;;21.40;99.90;;;;;;5010830;28;20183;-29
2023/09/08 08:35:19;;;;;;;7.95;7.13;;;21.60;99.90;;;;;;5011155;28;20250;-29
2023/09/08 08:37:45;;;;;;;9.20;8.30;;;21.80;99.90;;;;;;5011598;28;20183;-29
2023/09/08 08:40:14;;;;;;;7.95;7.05;;;21.90;99.90;;;;;;5011583;28;20663;-30
2023/09/08 08:42:42;;;;;;;8.05;7.35;;;22.10;99.90;;;;;;5011274;28;20221;-29
2023/09/08 08:45:08;;;;;;;8.63;7.65;;;22.10;99.90;;;;;;5009297;28;20198;-29
2023/09/08 08:47:35;;;;;;;9.02;7.60;;;22.20;99.90;;;;;;5011465;28;20199;-29
2023/09/08 08:50:03;;;;;;;8.35;7.53;;;22.30;99.90;;;;;;5010375;28;20190;-29
2023/09/08 08:52:29;;;;;;;8.18;7.43;;;22.50;99.90;;;;;;5010908;28;20277;-30
2023/09/08 08:54:56;;;;;;;8.57;7.72;;;22.60;99.90;;;;;;5010974;28;20247;-29
2023/09/08 08:57:22;;;;;;;7.90;6.93;;;22.60;99.90;;;;;;5010664;28;20234;-29
2023/09/08 08:59:51;;;;;;;7.22;6.53;;;22.70;99.90;;;;;;5010780;28;20187;-30
2023/09/08 09:02:21;;;;;;;8.60;7.75;;;22.90;99.90;;;;;;5006544;28;20210;-29
2023/09/08 09:04:48;;;;;;;7.22;6.60;;;23.10;99.90;;;;;;5004082;28;20200;-29
2023/09/08 09:07:15;;;;;;;9.88;7.13;;;23.30;99.90;;;;;;5011603;28;20190;-29
2023/09/08 09:09:41;;;;;;;7.57;6.82;;;23.40;99.90;;;;;;5011936;28;20207;-30
2023/09/08 09:12:07;;;;;;;7.57;6.78;;;23.60;99.90;;;;;;5012622;28;20187;-29
2023/09/08 09:14:33;;;;;;;8.00;7.20;;;23.80;99.90;;;;;;5009927;28;20207;-29
2023/09/08 09:17:01;;;;;;;6.95;6.30;;;23.90;99.90;;;;;;5002842;28;20183;-29
2023/09/08 09:19:28;;;;;;;7.82;7.03;;;24.00;99.90;;;;;;5011035;28;20210;-30
2023/09/08 09:21:55;;;;;;;7.43;6.72;;;24.20;99.90;;;;;;5010286;28;20206;-29
2023/09/08 09:24:40;;;;;;;7.10;6.28;;;24.20;99.90;;;;;;5010515;28;20679;-30
2023/09/08 09:27:07;;;;;;;6.25;5.75;;;24.40;99.90;;;;;;5003633;28;20178;-29
2023/09/08 09:29:34;;;;;;;7.20;6.60;;;24.50;99.90;;;;;;5010795;28;20282;-29
2023/09/08 09:32:05;;;;;;;6.80;6.10;;;24.50;99.90;;;;;;5009452;28;20203;-30
2023/09/08 09:34:32;;;;;;;7.45;6.50;;;24.70;99.90;;;;;;5010301;28;20214;-30
2023/09/08 09:36:58;;;;;;;8.18;7.38;;;24.80;99.90;;;;;;5010763;28;20183;-30
2023/09/08 09:39:25;;;;;;;7.50;6.80;;;24.90;99.90;;;;;;5010424;28;20198;-29
2023/09/08 09:41:58;;;;;;;8.02;6.80;;;24.90;99.90;;;;;;5024484;28;20269;-30
2023/09/08 09:44:24;;;;;;;7.82;7.03;;;25.10;99.90;;;;;;5007388;28;20202;-29
2023/09/08 09:46:54;;;;;;;7.32;6.57;;;25.10;99.90;;;;;;5010267;28;20210;-29
2023/09/08 09:49:20;;;;;;;8.27;7.28;;;25.20;99.90;;;;;;5010569;28;20187;-30
2023/09/08 09:51:50;;;;;;;8.00;7.20;;;25.30;99.90;;;;;;5008829;28;20191;-30
2023/09/08 09:54:17;;;;;;;7.50;6.80;;;25.50;99.90;;;;;;5009529;28;20231;-30
2023/09/08 09:56:44;;;;;;;7.28;6.57;;;25.70;99.90;;;;;;5009741;28;20187;-30
2023/09/08 09:59:12;;;;;;;7.55;6.85;;;25.80;99.90;;;;;;5009259;28;20194;-30
2023/09/08 10:01:45;;;;;;;9.13;7.15;;;26.00;99.90;;;;;;5007239;28;20185;-30
2023/09/08 10:04:11;;;;;;;6.95;6.35;;;26.10;99.90;;;;;;5008162;28;20207;-30
2023/09/08 10:06:39;;;;;;;8.80;6.85;;;26.40;99.90;;;;;;5007390;28;20175;-30
2023/09/08 10:09:13;;;;;;;7.20;6.40;;;26.30;99.90;;;;;;4992430;28;20187;-30
2023/09/08 10:11:48;;;;;;;7.07;6.47;;;26.40;99.90;;;;;;5007106;28;20214;-30
2023/09/08 10:14:15;;;;;;;7.50;6.82;;;26.40;99.90;;;;;;4992918;28;20223;-30
2023/09/08 10:16:44;;;;;;;7.40;6.70;;;26.50;99.90;;;;;;5008979;28;20191;-30
2023/09/08 10:19:11;;;;;;;7.70;6.55;;;26.60;99.90;;;;;;5009934;28;20183;-31
2023/09/08 10:21:42;;;;;;;7.47;6.78;;;26.80;99.90;;;;;;5008363;28;20176;-30
2023/09/08 10:24:27;;;;;;;6.18;5.60;;;27.00;99.90;;;;;;5008529;28;20199;-31
2023/09/08 10:27:10;;;;;;;6.90;6.30;;;27.10;99.90;;;;;;5006715;28;20210;-30
2023/09/08 10:29:40;;;;;;;6.93;6.38;;;27.30;99.90;;;;;;5006445;28;20198;-30
2023/09/08 10:32:09;;;;;;;6.40;5.80;;;27.30;99.90;;;;;;5007002;28;20257;-30
2023/09/08 10:34:36;;;;;;;6.18;5.57;;;27.30;99.90;;;;;;5007323;28;20233;-30
2023/09/08 10:37:17;;;;;;;7.38;6.50;;;27.50;99.90;;;;;;5003286;28;20253;-30
2023/09/08 10:39:44;;;;;;;7.28;6.25;;;27.60;99.90;;;;;;5005038;28;20192;-31
2023/09/08 10:42:16;;;;;;;6.60;6.00;;;27.70;99.90;;;;;;5008879;28;20297;-30
2023/09/08 10:44:44;;;;;;;6.55;5.93;;;27.80;99.90;;;;;;4999089;28;20295;-31
2023/09/08 10:47:11;;;;;;;6.68;5.90;;;27.90;99.90;;;;;;5008619;28;20318;-30
2023/09/08 10:49:38;;;;;;;6.80;6.07;;;27.70;99.90;;;;;;5009729;28;20712;-30
2023/09/08 10:52:12;;;;;;;7.93;5.93;;;27.80;99.90;;;;;;5009118;28;20289;-31
2023/09/08 10:55:06;;;;;;;5.90;5.40;;;27.90;99.90;;;;;;5009400;28;20242;-31
2023/09/08 10:57:33;;;;;;;6.80;6.20;;;28.00;99.90;;;;;;5004904;28;20256;-31
2023/09/08 11:00:20;;;;;;;6.20;5.72;;;28.00;99.90;;;;;;5009601;28;20191;-31
2023/09/08 11:02:54;;;;;;;6.55;5.80;;;28.10;99.90;;;;;;5009044;28;20202;-31
2023/09/08 11:05:21;;;;;;;7.03;6.32;;;28.30;99.90;;;;;;5008587;28;20203;-31
2023/09/08 11:07:49;;;;;;;6.22;5.72;;;28.40;99.90;;;;;;5009485;28;20294;-31
2023/09/08 11:10:15;;;;;;;6.20;5.60;;;28.50;99.90;;;;;;5009619;28;20206;-31
2023/09/08 11:12:41;;;;;;;6.30;5.80;;;28.60;99.90;;;;;;5009308;28;20234;-31
2023/09/08 11:15:08;;;;;;;7.78;5.70;;;28.80;99.90;;;;;;5008251;28;20234;-31
2023/09/08 11:17:41;;;;;;;8.43;6.05;;;28.70;99.90;;;;;;5016742;28;20265;-31
2023/09/08 11:20:10;;;;;;;6.38;5.88;;;28.80;99.90;;;;;;5009506;28;20185;-31
2023/09/08 11:22:38;;;;;;;5.85;5.35;;;28.80;99.90;;;;;;5009157;28;20207;-31
2023/09/08 11:25:07;;;;;;;6.22;5.72;;;29.10;99.90;;;;;;5008718;28;20238;-31
2023/09/08 11:27:34;;;;;;;6.35;5.75;;;29.30;99.90;;;;;;5009105;28;20183;-31
2023/09/08 11:30:00;;;;;;;6.30;5.68;;;29.50;99.90;;;;;;5008977;28;20215;-31
2023/09/08 11:32:35;;;;;;;6.00;5.40;;;29.60;99.90;;;;;;5008879;28;20256;-31
2023/09/08 11:35:09;;;;;;;7.10;6.50;;;29.80;99.90;;;;;;5008791;28;20277;-31
2023/09/08 11:37:38;;;;;;;6.90;6.22;;;29.90;99.90;;;;;;5008868;28;20187;-31
2023/09/08 11:40:13;;;;;;;6.25;5.65;;;30.00;99.90;;;;;;5009224;28;20241;-31
2023/09/08 11:42:44;;;;;;;6.22;5.57;;;30.00;99.90;;;;;;5002540;28;20211;-31
2023/09/08 11:45:21;;;;;;;5.80;5.28;;;30.10;99.90;;;;;;5008766;28;20207;-31
2023/09/08 11:47:49;;;;;;;6.30;5.80;;;30.30;99.90;;;;;;5008932;28;20215;-31
2023/09/08 11:50:15;;;;;;;6.22;5.68;;;30.30;99.90;;;;;;5009075;28;20195;-31
2023/09/08 11:52:48;;;;;;;6.35;5.75;;;30.40;99.90;;;;;;5009007;28;20183;-31
2023/09/08 11:55:14;;;;;;;6.82;6.18;;;30.60;99.90;;;;;;5001276;28;20215;-31
2023/09/08 11:57:43;;;;;;;6.93;6.10;;;30.70;99.90;;;;;;5010029;28;20195;-31
2023/09/08 12:00:15;;;;;;;7.22;5.72;;;30.70;99.90;;;;;;4995130;28;20190;-32
2023/09/08 12:02:42;;;;;;;6.20;5.68;;;30.90;99.90;;;;;;5011330;28;20242;-31
2023/09/08 12:05:21;;;;;;;6.55;5.93;;;31.00;99.90;;;;;;5010603;28;20674;-31
2023/09/08 12:07:49;;;;;;;6.80;6.20;;;31.10;99.90;;;;;;5010809;28;20265;-32
2023/09/08 12:10:15;;;;;;;6.25;5.68;;;31.20;99.90;;;;;;5006495;28;20186;-31
2023/09/08 12:12:46;;;;;;;7.10;6.40;;;31.20;99.90;;;;;;5006723;28;20191;-32
2023/09/08 12:15:28;;;;;;;6.70;6.20;;;31.00;99.90;;;;;;5003345;28;20210;-32
2023/09/08 12:17:55;;;;;;;7.05;6.22;;;31.10;99.90;;;;;;5012235;28;20210;-31
2023/09/08 12:20:23;;;;;;;7.10;6.50;;;31.20;99.90;;;;;;5013044;28;20230;-32
2023/09/08 12:22:50;;;;;;;7.50;6.63;;;31.20;99.90;;;;;;5010481;28;20203;-31
2023/09/08 12:25:16;;;;;;;6.78;6.18;;;31.20;99.90;;;;;;5027729;28;20241;-31
2023/09/08 12:27:42;;;;;;;7.03;6.32;;;31.00;99.90;;;;;;5012155;28;20175;-31
2023/09/08 12:30:16;;;;;;;9.35;5.95;;;31.20;99.90;;;;;;5008222;28;20203;-32
2023/09/08 12:32:42;;;;;;;6.15;5.65;;;31.30;99.90;;;;;;5009572;28;20183;-31
2023/09/08 12:35:08;;;;;;;7.22;6.13;;;31.40;99.90;;;;;;5059652;23;20221;-34
2023/09/08 12:37:35;;;;;;;7.15;6.35;;;31.40;99.90;;;;;;5051760;28;20203;-34
2023/09/08 12:40:09;;;;;;;6.97;6.25;;;31.60;99.90;;;;;;5055076;28;20220;-34
2023/09/08 12:42:45;;;;;;;7.55;5.85;;;31.50;99.90;;;;;;5053903;28;20213;-32
2023/09/08 12:45:15;;;;;;;6.85;6.25;;;31.50;99.90;;;;;;5053687;28;20205;-32
2023/09/08 12:47:54;;;;;;;6.53;5.93;;;31.30;99.90;;;;;;5041987;28;20236;-32